sensor_id;sensor_type;location;lat;lon;timestamp;P1;durP1;ratioP1;P2;durP2;ratioP2
71639;SDS011;60912;48.968;10.124;2024-02-23T00:01:03;1.23;;;0.30;;
71639;SDS011;60912;48.968;10.124;2024-02-23T00:03:29;0.50;;;0.20;;
71639;SDS011;60912;48.968;10.124;2024-02-23T00:05:54;0.60;;;0.30;;
71639;SDS011;60912;48.968;10.124;2024-02-23T00:08:20;0.37;;;0.20;;
71639;SDS011;60912;48.968;10.124;2024-02-23T00:10:45;1.30;;;0.30;;
71639;SDS011;60912;48.968;10.124;2024-02-23T00:13:11;1.42;;;0.20;;
71639;SDS011;60912;48.968;10.124;2024-02-23T00:15:36;2.00;;;0.50;;
71639;SDS011;60912;48.968;10.124;2024-02-23T00:18:02;0.53;;;0.23;;
71639;SDS011;60912;48.968;10.124;2024-02-23T00:20:29;1.52;;;0.30;;
71639;SDS011;60912;48.968;10.124;2024-02-23T00:22:54;0.40;;;0.20;;
71639;SDS011;60912;48.968;10.124;2024-02-23T00:25:20;2.43;;;0.20;;
71639;SDS011;60912;48.968;10.124;2024-02-23T00:27:45;1.98;;;0.30;;
71639;SDS011;60912;48.968;10.124;2024-02-23T00:30:12;2.20;;;0.30;;
71639;SDS011;60912;48.968;10.124;2024-02-23T00:32:38;1.42;;;0.30;;
71639;SDS011;60912;48.968;10.124;2024-02-23T00:35:03;1.00;;;0.20;;
71639;SDS011;60912;48.968;10.124;2024-02-23T00:37:29;0.88;;;0.20;;
71639;SDS011;60912;48.968;10.124;2024-02-23T00:39:54;1.60;;;0.30;;
71639;SDS011;60912;48.968;10.124;2024-02-23T00:42:19;1.07;;;0.30;;
71639;SDS011;60912;48.968;10.124;2024-02-23T00:44:46;0.77;;;0.43;;
71639;SDS011;60912;48.968;10.124;2024-02-23T00:47:11;0.87;;;0.20;;
71639;SDS011;60912;48.968;10.124;2024-02-23T00:49:37;2.05;;;0.30;;
71639;SDS011;60912;48.968;10.124;2024-02-23T00:52:02;1.30;;;0.27;;
71639;SDS011;60912;48.968;10.124;2024-02-23T00:54:27;0.40;;;0.20;;
71639;SDS011;60912;48.968;10.124;2024-02-23T00:56:53;3.13;;;0.30;;
71639;SDS011;60912;48.968;10.124;2024-02-23T00:59:18;1.03;;;0.30;;
71639;SDS011;60912;48.968;10.124;2024-02-23T01:01:43;2.23;;;0.30;;
71639;SDS011;60912;48.968;10.124;2024-02-23T01:04:09;2.10;;;0.30;;
71639;SDS011;60912;48.968;10.124;2024-02-23T01:06:34;0.57;;;0.20;;
71639;SDS011;60912;48.968;10.124;2024-02-23T01:08:59;1.07;;;0.30;;
71639;SDS011;60912;48.968;10.124;2024-02-23T01:11:25;1.07;;;0.20;;
71639;SDS011;60912;48.968;10.124;2024-02-23T01:13:50;0.87;;;0.30;;
71639;SDS011;60912;48.968;10.124;2024-02-23T01:16:15;2.23;;;0.50;;
71639;SDS011;60912;48.968;10.124;2024-02-23T01:18:41;1.15;;;0.20;;
71639;SDS011;60912;48.968;10.124;2024-02-23T01:21:06;1.17;;;0.23;;
71639;SDS011;60912;48.968;10.124;2024-02-23T01:23:33;2.53;;;0.30;;
71639;SDS011;60912;48.968;10.124;2024-02-23T01:25:58;1.70;;;0.30;;
71639;SDS011;60912;48.968;10.124;2024-02-23T01:28:25;1.17;;;0.30;;
71639;SDS011;60912;48.968;10.124;2024-02-23T01:30:50;1.70;;;0.40;;
71639;SDS011;60912;48.968;10.124;2024-02-23T01:33:15;0.47;;;0.20;;
71639;SDS011;60912;48.968;10.124;2024-02-23T01:35:41;1.50;;;0.30;;
71639;SDS011;60912;48.968;10.124;2024-02-23T01:38:06;2.27;;;0.30;;
71639;SDS011;60912;48.968;10.124;2024-02-23T01:40:31;1.47;;;0.40;;
71639;SDS011;60912;48.968;10.124;2024-02-23T01:43:06;1.10;;;0.20;;
71639;SDS011;60912;48.968;10.124;2024-02-23T01:45:31;0.60;;;0.20;;
71639;SDS011;60912;48.968;10.124;2024-02-23T01:47:57;2.70;;;0.30;;
71639;SDS011;60912;48.968;10.124;2024-02-23T01:50:24;2.58;;;0.30;;
71639;SDS011;60912;48.968;10.124;2024-02-23T01:52:50;0.93;;;0.20;;
71639;SDS011;60912;48.968;10.124;2024-02-23T01:55:19;0.73;;;0.20;;
71639;SDS011;60912;48.968;10.124;2024-02-23T01:57:45;1.45;;;0.30;;
71639;SDS011;60912;48.968;10.124;2024-02-23T02:00:12;0.88;;;0.20;;
71639;SDS011;60912;48.968;10.124;2024-02-23T02:02:42;1.67;;;0.30;;
71639;SDS011;60912;48.968;10.124;2024-02-23T02:05:08;0.83;;;0.20;;
71639;SDS011;60912;48.968;10.124;2024-02-23T02:07:34;3.45;;;0.30;;
71639;SDS011;60912;48.968;10.124;2024-02-23T02:09:59;1.10;;;0.30;;
71639;SDS011;60912;48.968;10.124;2024-02-23T02:12:27;2.07;;;0.30;;
71639;SDS011;60912;48.968;10.124;2024-02-23T02:14:53;2.58;;;0.30;;
71639;SDS011;60912;48.968;10.124;2024-02-23T02:17:19;1.20;;;0.30;;
71639;SDS011;60912;48.968;10.124;2024-02-23T02:19:46;1.73;;;0.30;;
71639;SDS011;60912;48.968;10.124;2024-02-23T02:22:13;2.65;;;0.30;;
71639;SDS011;60912;48.968;10.124;2024-02-23T02:24:38;1.73;;;0.30;;
71639;SDS011;60912;48.968;10.124;2024-02-23T02:27:07;0.90;;;0.20;;
71639;SDS011;60912;48.968;10.124;2024-02-23T02:29:32;1.47;;;0.30;;
71639;SDS011;60912;48.968;10.124;2024-02-23T02:32:00;4.22;;;0.30;;
71639;SDS011;60912;48.968;10.124;2024-02-23T02:34:25;0.70;;;0.20;;
71639;SDS011;60912;48.968;10.124;2024-02-23T02:36:50;2.83;;;0.30;;
71639;SDS011;60912;48.968;10.124;2024-02-23T02:39:16;1.90;;;0.30;;
71639;SDS011;60912;48.968;10.124;2024-02-23T02:41:41;1.63;;;0.40;;
71639;SDS011;60912;48.968;10.124;2024-02-23T02:44:07;3.05;;;0.30;;
71639;SDS011;60912;48.968;10.124;2024-02-23T02:46:34;0.63;;;0.30;;
71639;SDS011;60912;48.968;10.124;2024-02-23T02:49:00;1.38;;;0.30;;
71639;SDS011;60912;48.968;10.124;2024-02-23T02:51:26;1.47;;;0.23;;
71639;SDS011;60912;48.968;10.124;2024-02-23T02:53:51;0.80;;;0.30;;
71639;SDS011;60912;48.968;10.124;2024-02-23T02:56:16;2.80;;;0.30;;
71639;SDS011;60912;48.968;10.124;2024-02-23T02:58:42;1.00;;;0.30;;
71639;SDS011;60912;48.968;10.124;2024-02-23T03:01:07;2.40;;;0.30;;
71639;SDS011;60912;48.968;10.124;2024-02-23T03:03:33;1.67;;;0.40;;
71639;SDS011;60912;48.968;10.124;2024-02-23T03:05:59;1.23;;;0.30;;
71639;SDS011;60912;48.968;10.124;2024-02-23T03:08:24;1.77;;;0.40;;
71639;SDS011;60912;48.968;10.124;2024-02-23T03:10:51;1.02;;;0.30;;
71639;SDS011;60912;48.968;10.124;2024-02-23T03:13:16;2.30;;;0.40;;
71639;SDS011;60912;48.968;10.124;2024-02-23T03:15:41;3.27;;;0.40;;
71639;SDS011;60912;48.968;10.124;2024-02-23T03:18:07;2.40;;;0.40;;
71639;SDS011;60912;48.968;10.124;2024-02-23T03:20:34;1.75;;;0.40;;
71639;SDS011;60912;48.968;10.124;2024-02-23T03:22:59;2.87;;;0.50;;
71639;SDS011;60912;48.968;10.124;2024-02-23T03:25:26;1.50;;;0.30;;
71639;SDS011;60912;48.968;10.124;2024-02-23T03:27:51;2.57;;;0.40;;
71639;SDS011;60912;48.968;10.124;2024-02-23T03:30:16;1.43;;;0.30;;
71639;SDS011;60912;48.968;10.124;2024-02-23T03:32:42;1.67;;;0.30;;
71639;SDS011;60912;48.968;10.124;2024-02-23T03:35:07;1.52;;;0.30;;
71639;SDS011;60912;48.968;10.124;2024-02-23T03:37:33;2.37;;;0.40;;
71639;SDS011;60912;48.968;10.124;2024-02-23T03:39:58;1.67;;;0.40;;
71639;SDS011;60912;48.968;10.124;2024-02-23T03:42:27;3.28;;;0.40;;
71639;SDS011;60912;48.968;10.124;2024-02-23T03:44:52;2.03;;;0.40;;
71639;SDS011;60912;48.968;10.124;2024-02-23T03:47:18;4.53;;;0.57;;
71639;SDS011;60912;48.968;10.124;2024-02-23T03:49:43;2.93;;;0.60;;
71639;SDS011;60912;48.968;10.124;2024-02-23T03:52:09;2.53;;;0.50;;
71639;SDS011;60912;48.968;10.124;2024-02-23T03:54:34;2.80;;;0.37;;
71639;SDS011;60912;48.968;10.124;2024-02-23T03:56:59;1.67;;;0.40;;
71639;SDS011;60912;48.968;10.124;2024-02-23T03:59:25;1.20;;;0.30;;
71639;SDS011;60912;48.968;10.124;2024-02-23T04:01:50;1.63;;;0.30;;
71639;SDS011;60912;48.968;10.124;2024-02-23T04:04:15;4.37;;;0.43;;
71639;SDS011;60912;48.968;10.124;2024-02-23T04:06:41;3.13;;;0.50;;
71639;SDS011;60912;48.968;10.124;2024-02-23T04:09:06;2.70;;;0.30;;
71639;SDS011;60912;48.968;10.124;2024-02-23T04:11:33;1.30;;;0.40;;
71639;SDS011;60912;48.968;10.124;2024-02-23T04:13:59;1.83;;;0.40;;
71639;SDS011;60912;48.968;10.124;2024-02-23T04:16:25;2.58;;;0.40;;
71639;SDS011;60912;48.968;10.124;2024-02-23T04:18:51;2.70;;;0.50;;
71639;SDS011;60912;48.968;10.124;2024-02-23T04:21:16;2.40;;;0.40;;
71639;SDS011;60912;48.968;10.124;2024-02-23T04:23:42;3.27;;;0.40;;
71639;SDS011;60912;48.968;10.124;2024-02-23T04:26:08;1.35;;;0.43;;
71639;SDS011;60912;48.968;10.124;2024-02-23T04:28:34;3.53;;;0.47;;
71639;SDS011;60912;48.968;10.124;2024-02-23T04:30:59;2.50;;;0.40;;
71639;SDS011;60912;48.968;10.124;2024-02-23T04:33:25;3.13;;;0.75;;
71639;SDS011;60912;48.968;10.124;2024-02-23T04:35:51;2.60;;;0.47;;
71639;SDS011;60912;48.968;10.124;2024-02-23T04:38:16;1.00;;;0.37;;
71639;SDS011;60912;48.968;10.124;2024-02-23T04:40:41;1.80;;;0.40;;
71639;SDS011;60912;48.968;10.124;2024-02-23T04:43:07;2.63;;;0.40;;
71639;SDS011;60912;48.968;10.124;2024-02-23T04:45:32;2.27;;;0.30;;
71639;SDS011;60912;48.968;10.124;2024-02-23T04:47:57;2.40;;;0.33;;
71639;SDS011;60912;48.968;10.124;2024-02-23T04:50:23;1.80;;;0.40;;
71639;SDS011;60912;48.968;10.124;2024-02-23T04:52:48;2.33;;;0.33;;
71639;SDS011;60912;48.968;10.124;2024-02-23T04:55:15;1.05;;;0.38;;
71639;SDS011;60912;48.968;10.124;2024-02-23T04:57:40;2.97;;;0.50;;
71639;SDS011;60912;48.968;10.124;2024-02-23T05:00:06;2.50;;;0.63;;
71639;SDS011;60912;48.968;10.124;2024-02-23T05:02:32;1.60;;;0.50;;
71639;SDS011;60912;48.968;10.124;2024-02-23T05:05:00;2.45;;;0.50;;
71639;SDS011;60912;48.968;10.124;2024-02-23T05:07:29;1.70;;;0.47;;
71639;SDS011;60912;48.968;10.124;2024-02-23T05:09:55;3.28;;;0.30;;
71639;SDS011;60912;48.968;10.124;2024-02-23T05:12:20;1.13;;;0.30;;
71639;SDS011;60912;48.968;10.124;2024-02-23T05:14:46;2.37;;;0.30;;
71639;SDS011;60912;48.968;10.124;2024-02-23T05:17:11;2.57;;;0.80;;
71639;SDS011;60912;48.968;10.124;2024-02-23T05:19:36;2.90;;;0.60;;
71639;SDS011;60912;48.968;10.124;2024-02-23T05:22:02;3.57;;;0.40;;
71639;SDS011;60912;48.968;10.124;2024-02-23T05:24:28;1.40;;;0.30;;
71639;SDS011;60912;48.968;10.124;2024-02-23T05:26:54;3.50;;;0.70;;
71639;SDS011;60912;48.968;10.124;2024-02-23T05:29:19;5.43;;;1.67;;
71639;SDS011;60912;48.968;10.124;2024-02-23T05:31:48;3.10;;;0.85;;
71639;SDS011;60912;48.968;10.124;2024-02-23T05:34:14;3.63;;;1.00;;
71639;SDS011;60912;48.968;10.124;2024-02-23T05:36:40;2.17;;;0.50;;
71639;SDS011;60912;48.968;10.124;2024-02-23T05:39:06;3.17;;;0.60;;
71639;SDS011;60912;48.968;10.124;2024-02-23T05:41:32;3.60;;;0.57;;
71639;SDS011;60912;48.968;10.124;2024-02-23T05:43:58;2.60;;;0.60;;
71639;SDS011;60912;48.968;10.124;2024-02-23T05:46:24;4.10;;;1.00;;
71639;SDS011;60912;48.968;10.124;2024-02-23T05:48:49;3.93;;;1.23;;
71639;SDS011;60912;48.968;10.124;2024-02-23T05:51:14;1.73;;;0.60;;
71639;SDS011;60912;48.968;10.124;2024-02-23T05:53:40;5.20;;;1.30;;
71639;SDS011;60912;48.968;10.124;2024-02-23T05:56:06;3.83;;;0.87;;
71639;SDS011;60912;48.968;10.124;2024-02-23T05:58:31;4.55;;;1.17;;
71639;SDS011;60912;48.968;10.124;2024-02-23T06:00:56;4.83;;;0.50;;
71639;SDS011;60912;48.968;10.124;2024-02-23T06:03:22;5.00;;;1.40;;
71639;SDS011;60912;48.968;10.124;2024-02-23T06:05:47;3.57;;;1.10;;
71639;SDS011;60912;48.968;10.124;2024-02-23T06:08:13;3.43;;;1.20;;
71639;SDS011;60912;48.968;10.124;2024-02-23T06:10:38;5.68;;;1.00;;
71639;SDS011;60912;48.968;10.124;2024-02-23T06:13:03;6.00;;;1.50;;
71639;SDS011;60912;48.968;10.124;2024-02-23T06:15:29;5.50;;;1.23;;
71639;SDS011;60912;48.968;10.124;2024-02-23T06:17:54;3.43;;;1.20;;
71639;SDS011;60912;48.968;10.124;2024-02-23T06:20:19;6.23;;;2.03;;
71639;SDS011;60912;48.968;10.124;2024-02-23T06:22:45;6.28;;;1.30;;
71639;SDS011;60912;48.968;10.124;2024-02-23T06:25:10;2.80;;;0.90;;
71639;SDS011;60912;48.968;10.124;2024-02-23T06:27:36;3.67;;;1.10;;
71639;SDS011;60912;48.968;10.124;2024-02-23T06:30:02;4.87;;;1.40;;
71639;SDS011;60912;48.968;10.124;2024-02-23T06:32:27;4.20;;;0.83;;
71639;SDS011;60912;48.968;10.124;2024-02-23T06:34:54;4.13;;;0.77;;
71639;SDS011;60912;48.968;10.124;2024-02-23T06:37:19;3.00;;;0.67;;
71639;SDS011;60912;48.968;10.124;2024-02-23T06:39:44;3.17;;;0.63;;
71639;SDS011;60912;48.968;10.124;2024-02-23T06:42:14;2.80;;;0.70;;
71639;SDS011;60912;48.968;10.124;2024-02-23T06:44:40;5.40;;;1.10;;
71639;SDS011;60912;48.968;10.124;2024-02-23T06:47:06;4.03;;;1.10;;
71639;SDS011;60912;48.968;10.124;2024-02-23T06:49:31;4.03;;;1.00;;
71639;SDS011;60912;48.968;10.124;2024-02-23T06:51:57;4.27;;;1.20;;
71639;SDS011;60912;48.968;10.124;2024-02-23T06:54:22;3.33;;;1.20;;
71639;SDS011;60912;48.968;10.124;2024-02-23T06:56:48;4.10;;;1.10;;
71639;SDS011;60912;48.968;10.124;2024-02-23T06:59:13;4.83;;;1.40;;
71639;SDS011;60912;48.968;10.124;2024-02-23T07:01:49;2.78;;;1.30;;
71639;SDS011;60912;48.968;10.124;2024-02-23T07:04:15;4.78;;;1.17;;
71639;SDS011;60912;48.968;10.124;2024-02-23T07:06:40;3.20;;;0.67;;
71639;SDS011;60912;48.968;10.124;2024-02-23T07:09:06;3.53;;;0.60;;
71639;SDS011;60912;48.968;10.124;2024-02-23T07:11:31;2.73;;;1.00;;
71639;SDS011;60912;48.968;10.124;2024-02-23T07:13:56;5.87;;;0.70;;
71639;SDS011;60912;48.968;10.124;2024-02-23T07:16:22;2.20;;;0.80;;
71639;SDS011;60912;48.968;10.124;2024-02-23T07:18:47;2.53;;;0.80;;
71639;SDS011;60912;48.968;10.124;2024-02-23T07:21:12;2.97;;;0.80;;
71639;SDS011;60912;48.968;10.124;2024-02-23T07:23:38;3.73;;;0.80;;
71639;SDS011;60912;48.968;10.124;2024-02-23T07:26:03;2.83;;;0.80;;
71639;SDS011;60912;48.968;10.124;2024-02-23T07:28:28;4.03;;;0.80;;
71639;SDS011;60912;48.968;10.124;2024-02-23T07:30:54;5.95;;;0.90;;
71639;SDS011;60912;48.968;10.124;2024-02-23T07:33:19;3.03;;;0.90;;
71639;SDS011;60912;48.968;10.124;2024-02-23T07:35:44;3.37;;;0.97;;
71639;SDS011;60912;48.968;10.124;2024-02-23T07:38:10;2.30;;;0.70;;
71639;SDS011;60912;48.968;10.124;2024-02-23T07:40:35;2.70;;;0.80;;
71639;SDS011;60912;48.968;10.124;2024-02-23T07:43:01;3.22;;;0.88;;
71639;SDS011;60912;48.968;10.124;2024-02-23T07:45:26;3.97;;;0.73;;
71639;SDS011;60912;48.968;10.124;2024-02-23T07:47:51;4.33;;;0.83;;
71639;SDS011;60912;48.968;10.124;2024-02-23T07:50:17;3.80;;;0.93;;
71639;SDS011;60912;48.968;10.124;2024-02-23T07:52:43;3.17;;;0.80;;
71639;SDS011;60912;48.968;10.124;2024-02-23T07:55:09;2.73;;;0.80;;
71639;SDS011;60912;48.968;10.124;2024-02-23T07:57:34;4.40;;;0.80;;
71639;SDS011;60912;48.968;10.124;2024-02-23T08:00:00;3.28;;;0.70;;
71639;SDS011;60912;48.968;10.124;2024-02-23T08:02:26;2.17;;;0.60;;
71639;SDS011;60912;48.968;10.124;2024-02-23T08:04:51;6.72;;;1.08;;
71639;SDS011;60912;48.968;10.124;2024-02-23T08:07:17;3.07;;;0.70;;
71639;SDS011;60912;48.968;10.124;2024-02-23T08:09:42;2.13;;;0.70;;
71639;SDS011;60912;48.968;10.124;2024-02-23T08:12:08;3.67;;;0.70;;
71639;SDS011;60912;48.968;10.124;2024-02-23T08:14:33;2.57;;;0.60;;
71639;SDS011;60912;48.968;10.124;2024-02-23T08:16:59;3.07;;;0.80;;
71639;SDS011;60912;48.968;10.124;2024-02-23T08:19:24;3.33;;;0.70;;
71639;SDS011;60912;48.968;10.124;2024-02-23T08:21:50;3.20;;;0.73;;
71639;SDS011;60912;48.968;10.124;2024-02-23T08:24:15;2.53;;;0.70;;
71639;SDS011;60912;48.968;10.124;2024-02-23T08:26:40;3.53;;;0.60;;
71639;SDS011;60912;48.968;10.124;2024-02-23T08:29:07;4.25;;;0.70;;
71639;SDS011;60912;48.968;10.124;2024-02-23T08:31:33;3.35;;;0.80;;
71639;SDS011;60912;48.968;10.124;2024-02-23T08:33:59;4.23;;;0.80;;
71639;SDS011;60912;48.968;10.124;2024-02-23T08:36:24;2.40;;;0.70;;
71639;SDS011;60912;48.968;10.124;2024-02-23T08:38:50;5.23;;;1.20;;
71639;SDS011;60912;48.968;10.124;2024-02-23T08:41:15;4.10;;;0.70;;
71639;SDS011;60912;48.968;10.124;2024-02-23T08:43:40;3.07;;;0.77;;
71639;SDS011;60912;48.968;10.124;2024-02-23T08:46:06;2.70;;;0.70;;
71639;SDS011;60912;48.968;10.124;2024-02-23T08:48:31;2.27;;;0.70;;
71639;SDS011;60912;48.968;10.124;2024-02-23T08:50:56;3.23;;;0.90;;
71639;SDS011;60912;48.968;10.124;2024-02-23T08:53:22;3.47;;;0.73;;
71639;SDS011;60912;48.968;10.124;2024-02-23T08:55:47;3.20;;;0.93;;
71639;SDS011;60912;48.968;10.124;2024-02-23T08:58:13;7.50;;;2.50;;
71639;SDS011;60912;48.968;10.124;2024-02-23T09:00:38;26.07;;;9.03;;
71639;SDS011;60912;48.968;10.124;2024-02-23T09:03:03;10.77;;;4.47;;
71639;SDS011;60912;48.968;10.124;2024-02-23T09:05:29;13.32;;;6.57;;
71639;SDS011;60912;48.968;10.124;2024-02-23T09:07:54;22.53;;;11.43;;
71639;SDS011;60912;48.968;10.124;2024-02-23T09:10:20;5.17;;;2.30;;
71639;SDS011;60912;48.968;10.124;2024-02-23T09:12:45;6.22;;;3.17;;
71639;SDS011;60912;48.968;10.124;2024-02-23T09:15:11;4.60;;;1.67;;
71639;SDS011;60912;48.968;10.124;2024-02-23T09:17:36;3.50;;;1.40;;
71639;SDS011;60912;48.968;10.124;2024-02-23T09:20:02;3.45;;;1.20;;
71639;SDS011;60912;48.968;10.124;2024-02-23T09:22:27;6.50;;;2.37;;
71639;SDS011;60912;48.968;10.124;2024-02-23T09:24:56;4.93;;;2.00;;
71639;SDS011;60912;48.968;10.124;2024-02-23T09:27:22;8.27;;;3.90;;
71639;SDS011;60912;48.968;10.124;2024-02-23T09:29:47;3.90;;;1.00;;
71639;SDS011;60912;48.968;10.124;2024-02-23T09:32:12;7.43;;;0.97;;
71639;SDS011;60912;48.968;10.124;2024-02-23T09:34:38;3.85;;;0.80;;
71639;SDS011;60912;48.968;10.124;2024-02-23T09:37:03;5.27;;;1.20;;
71639;SDS011;60912;48.968;10.124;2024-02-23T09:39:28;4.77;;;1.03;;
71639;SDS011;60912;48.968;10.124;2024-02-23T09:41:55;3.90;;;1.30;;
71639;SDS011;60912;48.968;10.124;2024-02-23T09:44:21;6.15;;;2.33;;
71639;SDS011;60912;48.968;10.124;2024-02-23T09:46:47;3.77;;;0.83;;
71639;SDS011;60912;48.968;10.124;2024-02-23T09:49:13;7.93;;;3.28;;
71639;SDS011;60912;48.968;10.124;2024-02-23T09:51:40;12.70;;;7.47;;
71639;SDS011;60912;48.968;10.124;2024-02-23T09:54:06;5.47;;;2.47;;
71639;SDS011;60912;48.968;10.124;2024-02-23T09:56:32;2.90;;;1.20;;
71639;SDS011;60912;48.968;10.124;2024-02-23T09:59:00;3.92;;;0.70;;
71639;SDS011;60912;48.968;10.124;2024-02-23T10:01:28;3.23;;;0.70;;
71639;SDS011;60912;48.968;10.124;2024-02-23T10:03:58;2.90;;;1.30;;
71639;SDS011;60912;48.968;10.124;2024-02-23T10:06:31;4.30;;;0.73;;
71639;SDS011;60912;48.968;10.124;2024-02-23T10:08:57;3.67;;;1.67;;
71639;SDS011;60912;48.968;10.124;2024-02-23T10:11:22;2.80;;;0.70;;
71639;SDS011;60912;48.968;10.124;2024-02-23T10:13:49;2.63;;;0.60;;
71639;SDS011;60912;48.968;10.124;2024-02-23T10:16:15;3.90;;;0.70;;
71639;SDS011;60912;48.968;10.124;2024-02-23T10:18:41;3.75;;;1.10;;
71639;SDS011;60912;48.968;10.124;2024-02-23T10:21:07;3.13;;;0.93;;
71639;SDS011;60912;48.968;10.124;2024-02-23T10:23:32;3.50;;;0.90;;
71639;SDS011;60912;48.968;10.124;2024-02-23T10:25:58;2.37;;;0.70;;
71639;SDS011;60912;48.968;10.124;2024-02-23T10:28:23;2.90;;;0.87;;
71639;SDS011;60912;48.968;10.124;2024-02-23T10:30:48;4.40;;;0.97;;
71639;SDS011;60912;48.968;10.124;2024-02-23T10:33:14;1.73;;;0.50;;
71639;SDS011;60912;48.968;10.124;2024-02-23T10:35:39;2.43;;;0.67;;
71639;SDS011;60912;48.968;10.124;2024-02-23T10:38:08;3.95;;;0.57;;
71639;SDS011;60912;48.968;10.124;2024-02-23T10:40:36;4.10;;;0.80;;
71639;SDS011;60912;48.968;10.124;2024-02-23T10:43:06;3.97;;;0.98;;
71639;SDS011;60912;48.968;10.124;2024-02-23T10:45:37;4.53;;;0.90;;
71639;SDS011;60912;48.968;10.124;2024-02-23T10:48:04;2.33;;;0.70;;
71639;SDS011;60912;48.968;10.124;2024-02-23T10:50:32;2.45;;;0.70;;
71639;SDS011;60912;48.968;10.124;2024-02-23T10:52:57;2.13;;;0.70;;
71639;SDS011;60912;48.968;10.124;2024-02-23T10:55:24;2.92;;;0.60;;
71639;SDS011;60912;48.968;10.124;2024-02-23T10:57:51;3.13;;;0.60;;
71639;SDS011;60912;48.968;10.124;2024-02-23T11:00:18;2.55;;;0.80;;
71639;SDS011;60912;48.968;10.124;2024-02-23T11:02:49;1.93;;;0.60;;
71639;SDS011;60912;48.968;10.124;2024-02-23T11:05:17;2.88;;;0.60;;
71639;SDS011;60912;48.968;10.124;2024-02-23T11:07:45;2.80;;;0.60;;
71639;SDS011;60912;48.968;10.124;2024-02-23T11:10:14;2.42;;;0.57;;
71639;SDS011;60912;48.968;10.124;2024-02-23T11:12:40;2.42;;;0.57;;
71639;SDS011;60912;48.968;10.124;2024-02-23T11:15:06;2.50;;;0.50;;
71639;SDS011;60912;48.968;10.124;2024-02-23T11:17:32;4.07;;;0.70;;
71639;SDS011;60912;48.968;10.124;2024-02-23T11:19:58;1.90;;;0.57;;
71639;SDS011;60912;48.968;10.124;2024-02-23T11:22:31;3.03;;;0.95;;
71639;SDS011;60912;48.968;10.124;2024-02-23T11:25:02;3.15;;;0.60;;
71639;SDS011;60912;48.968;10.124;2024-02-23T11:27:30;3.37;;;0.70;;
71639;SDS011;60912;48.968;10.124;2024-02-23T11:29:59;1.60;;;0.60;;
71639;SDS011;60912;48.968;10.124;2024-02-23T11:32:40;3.63;;;0.70;;
71639;SDS011;60912;48.968;10.124;2024-02-23T11:35:08;2.33;;;0.57;;
71639;SDS011;60912;48.968;10.124;2024-02-23T11:40:10;2.67;;;0.80;;
71639;SDS011;60912;48.968;10.124;2024-02-23T11:42:37;4.57;;;0.77;;
71639;SDS011;60912;48.968;10.124;2024-02-23T11:45:04;4.53;;;0.98;;
71639;SDS011;60912;48.968;10.124;2024-02-23T11:47:30;5.13;;;0.90;;
71639;SDS011;60912;48.968;10.124;2024-02-23T11:49:56;3.87;;;0.87;;
71639;SDS011;60912;48.968;10.124;2024-02-23T11:52:21;4.37;;;0.70;;
71639;SDS011;60912;48.968;10.124;2024-02-23T11:54:47;3.40;;;0.60;;
71639;SDS011;60912;48.968;10.124;2024-02-23T11:57:12;3.30;;;0.70;;
71639;SDS011;60912;48.968;10.124;2024-02-23T11:59:39;3.63;;;0.60;;
71639;SDS011;60912;48.968;10.124;2024-02-23T12:02:06;1.55;;;0.50;;
71639;SDS011;60912;48.968;10.124;2024-02-23T12:04:32;6.57;;;0.90;;
71639;SDS011;60912;48.968;10.124;2024-02-23T12:06:57;5.43;;;0.80;;
71639;SDS011;60912;48.968;10.124;2024-02-23T12:09:23;3.08;;;0.70;;
71639;SDS011;60912;48.968;10.124;2024-02-23T12:11:49;2.17;;;0.50;;
71639;SDS011;60912;48.968;10.124;2024-02-23T12:14:15;1.60;;;0.43;;
71639;SDS011;60912;48.968;10.124;2024-02-23T12:16:40;2.80;;;0.80;;
71639;SDS011;60912;48.968;10.124;2024-02-23T12:19:07;3.03;;;0.60;;
71639;SDS011;60912;48.968;10.124;2024-02-23T12:21:34;6.57;;;0.98;;
71639;SDS011;60912;48.968;10.124;2024-02-23T12:24:03;1.75;;;0.60;;
71639;SDS011;60912;48.968;10.124;2024-02-23T12:26:30;2.63;;;0.63;;
71639;SDS011;60912;48.968;10.124;2024-02-23T12:28:59;2.97;;;0.60;;
71639;SDS011;60912;48.968;10.124;2024-02-23T12:31:26;2.38;;;0.57;;
71639;SDS011;60912;48.968;10.124;2024-02-23T12:33:51;2.93;;;0.77;;
71639;SDS011;60912;48.968;10.124;2024-02-23T12:36:17;4.50;;;0.93;;
71639;SDS011;60912;48.968;10.124;2024-02-23T12:38:43;5.00;;;1.40;;
71639;SDS011;60912;48.968;10.124;2024-02-23T12:41:08;3.65;;;0.80;;
71639;SDS011;60912;48.968;10.124;2024-02-23T12:43:34;1.97;;;0.80;;
71639;SDS011;60912;48.968;10.124;2024-02-23T12:46:00;5.03;;;1.00;;
71639;SDS011;60912;48.968;10.124;2024-02-23T12:48:28;4.37;;;0.80;;
71639;SDS011;60912;48.968;10.124;2024-02-23T12:50:53;4.85;;;0.85;;
71639;SDS011;60912;48.968;10.124;2024-02-23T12:56:04;4.03;;;0.73;;
71639;SDS011;60912;48.968;10.124;2024-02-23T12:58:33;5.28;;;0.88;;
71639;SDS011;60912;48.968;10.124;2024-02-23T13:01:01;3.63;;;0.60;;
71639;SDS011;60912;48.968;10.124;2024-02-23T13:03:27;3.93;;;0.93;;
71639;SDS011;60912;48.968;10.124;2024-02-23T13:05:54;4.80;;;0.70;;
71639;SDS011;60912;48.968;10.124;2024-02-23T13:08:20;4.20;;;0.70;;
71639;SDS011;60912;48.968;10.124;2024-02-23T13:10:46;4.72;;;0.90;;
71639;SDS011;60912;48.968;10.124;2024-02-23T13:13:12;7.93;;;1.10;;
71639;SDS011;60912;48.968;10.124;2024-02-23T13:15:39;5.97;;;1.00;;
71639;SDS011;60912;48.968;10.124;2024-02-23T13:18:06;3.75;;;0.70;;
71639;SDS011;60912;48.968;10.124;2024-02-23T13:20:31;5.43;;;0.70;;
71639;SDS011;60912;48.968;10.124;2024-02-23T13:22:56;4.53;;;0.73;;
71639;SDS011;60912;48.968;10.124;2024-02-23T13:25:22;3.33;;;0.70;;
71639;SDS011;60912;48.968;10.124;2024-02-23T13:27:47;5.03;;;0.97;;
71639;SDS011;60912;48.968;10.124;2024-02-23T13:30:13;3.03;;;0.70;;
71639;SDS011;60912;48.968;10.124;2024-02-23T13:32:38;3.97;;;1.00;;
71639;SDS011;60912;48.968;10.124;2024-02-23T13:35:04;5.07;;;1.20;;
71639;SDS011;60912;48.968;10.124;2024-02-23T13:37:31;7.13;;;2.63;;
71639;SDS011;60912;48.968;10.124;2024-02-23T13:39:57;4.72;;;1.98;;
71639;SDS011;60912;48.968;10.124;2024-02-23T13:42:23;6.28;;;2.25;;
71639;SDS011;60912;48.968;10.124;2024-02-23T13:44:48;3.93;;;0.83;;
71639;SDS011;60912;48.968;10.124;2024-02-23T13:47:13;3.87;;;1.20;;
71639;SDS011;60912;48.968;10.124;2024-02-23T13:49:39;3.23;;;1.00;;
71639;SDS011;60912;48.968;10.124;2024-02-23T13:52:04;4.97;;;1.27;;
71639;SDS011;60912;48.968;10.124;2024-02-23T13:54:29;4.88;;;0.93;;
71639;SDS011;60912;48.968;10.124;2024-02-23T13:56:55;3.87;;;0.90;;
71639;SDS011;60912;48.968;10.124;2024-02-23T13:59:20;3.77;;;0.87;;
71639;SDS011;60912;48.968;10.124;2024-02-23T14:01:46;3.38;;;0.80;;
71639;SDS011;60912;48.968;10.124;2024-02-23T14:04:11;3.27;;;0.60;;
71639;SDS011;60912;48.968;10.124;2024-02-23T14:06:37;3.73;;;0.63;;
71639;SDS011;60912;48.968;10.124;2024-02-23T14:09:02;5.40;;;1.10;;
71639;SDS011;60912;48.968;10.124;2024-02-23T14:11:29;4.88;;;1.00;;
71639;SDS011;60912;48.968;10.124;2024-02-23T14:13:55;3.28;;;0.50;;
71639;SDS011;60912;48.968;10.124;2024-02-23T14:16:21;3.77;;;0.80;;
71639;SDS011;60912;48.968;10.124;2024-02-23T14:18:46;4.57;;;0.88;;
71639;SDS011;60912;48.968;10.124;2024-02-23T14:21:11;3.73;;;0.80;;
71639;SDS011;60912;48.968;10.124;2024-02-23T14:23:39;3.38;;;0.90;;
71639;SDS011;60912;48.968;10.124;2024-02-23T14:26:04;2.90;;;0.60;;
71639;SDS011;60912;48.968;10.124;2024-02-23T14:28:29;4.10;;;0.90;;
71639;SDS011;60912;48.968;10.124;2024-02-23T14:30:55;4.43;;;0.90;;